sensor_id;sensor_type;location;lat;lon;timestamp;temperature;humidity
18444;DHT22;9350;53.176;8.194;2023-03-20T00:00:31;10.70;99.90
18444;DHT22;9350;53.176;8.194;2023-03-20T00:02:58;10.70;99.90
18444;DHT22;9350;53.176;8.194;2023-03-20T00:05:27;10.60;99.90
18444;DHT22;9350;53.176;8.194;2023-03-20T00:07:55;10.60;99.90
18444;DHT22;9350;53.176;8.194;2023-03-20T00:10:26;10.70;99.90
18444;DHT22;9350;53.176;8.194;2023-03-20T00:12:54;10.60;99.90
18444;DHT22;9350;53.176;8.194;2023-03-20T00:15:27;10.60;99.90
18444;DHT22;9350;53.176;8.194;2023-03-20T00:17:56;10.60;99.90
18444;DHT22;9350;53.176;8.194;2023-03-20T00:20:23;10.60;99.90
18444;DHT22;9350;53.176;8.194;2023-03-20T00:22:52;10.60;99.90
18444;DHT22;9350;53.176;8.194;2023-03-20T00:25:20;10.60;99.90
18444;DHT22;9350;53.176;8.194;2023-03-20T00:27:48;10.50;99.90
18444;DHT22;9350;53.176;8.194;2023-03-20T00:30:20;10.50;99.90
18444;DHT22;9350;53.176;8.194;2023-03-20T00:32:48;10.40;99.90
18444;DHT22;9350;53.176;8.194;2023-03-20T00:35:20;10.40;99.90
18444;DHT22;9350;53.176;8.194;2023-03-20T00:37:48;10.30;99.90
18444;DHT22;9350;53.176;8.194;2023-03-20T00:40:17;10.20;99.90
18444;DHT22;9350;53.176;8.194;2023-03-20T00:42:45;10.10;99.90
18444;DHT22;9350;53.176;8.194;2023-03-20T00:45:15;10.20;99.90
18444;DHT22;9350;53.176;8.194;2023-03-20T00:47:43;10.20;99.90
18444;DHT22;9350;53.176;8.194;2023-03-20T00:50:15;10.20;99.90
18444;DHT22;9350;53.176;8.194;2023-03-20T00:52:42;10.20;99.90
18444;DHT22;9350;53.176;8.194;2023-03-20T00:55:09;10.10;99.90
18444;DHT22;9350;53.176;8.194;2023-03-20T00:57:41;10.00;99.90
18444;DHT22;9350;53.176;8.194;2023-03-20T01:00:20;10.00;99.90
18444;DHT22;9350;53.176;8.194;2023-03-20T01:02:48;10.00;99.90
18444;DHT22;9350;53.176;8.194;2023-03-20T01:05:14;10.10;99.90
18444;DHT22;9350;53.176;8.194;2023-03-20T01:07:42;10.20;99.90
18444;DHT22;9350;53.176;8.194;2023-03-20T01:10:10;10.10;99.90
18444;DHT22;9350;53.176;8.194;2023-03-20T01:12:39;10.10;99.90
18444;DHT22;9350;53.176;8.194;2023-03-20T01:15:15;10.10;99.90
18444;DHT22;9350;53.176;8.194;2023-03-20T01:17:42;10.20;99.90
18444;DHT22;9350;53.176;8.194;2023-03-20T01:20:14;10.10;99.90
18444;DHT22;9350;53.176;8.194;2023-03-20T01:22:42;10.20;99.90
18444;DHT22;9350;53.176;8.194;2023-03-20T01:25:09;10.10;99.90
18444;DHT22;9350;53.176;8.194;2023-03-20T01:27:38;10.10;99.90
18444;DHT22;9350;53.176;8.194;2023-03-20T01:30:16;10.10;99.90
18444;DHT22;9350;53.176;8.194;2023-03-20T01:32:43;10.00;99.90
18444;DHT22;9350;53.176;8.194;2023-03-20T01:35:12;10.10;99.90
18444;DHT22;9350;53.176;8.194;2023-03-20T01:37:39;9.90;99.90
18444;DHT22;9350;53.176;8.194;2023-03-20T01:42:57;10.00;99.90
18444;DHT22;9350;53.176;8.194;2023-03-20T01:45:28;10.00;99.90
18444;DHT22;9350;53.176;8.194;2023-03-20T01:47:55;9.90;99.90
18444;DHT22;9350;53.176;8.194;2023-03-20T01:50:31;9.90;99.90
18444;DHT22;9350;53.176;8.194;2023-03-20T01:53:03;9.90;99.90
18444;DHT22;9350;53.176;8.194;2023-03-20T01:55:31;9.90;99.90
18444;DHT22;9350;53.176;8.194;2023-03-20T01:58:02;9.90;99.90
18444;DHT22;9350;53.176;8.194;2023-03-20T02:00:30;9.90;99.90
18444;DHT22;9350;53.176;8.194;2023-03-20T02:02:57;9.90;99.90
18444;DHT22;9350;53.176;8.194;2023-03-20T02:05:25;10.00;99.90
18444;DHT22;9350;53.176;8.194;2023-03-20T02:08:04;9.90;99.90
18444;DHT22;9350;53.176;8.194;2023-03-20T02:10:34;10.10;99.90
18444;DHT22;9350;53.176;8.194;2023-03-20T02:13:03;10.00;99.90
18444;DHT22;9350;53.176;8.194;2023-03-20T02:15:30;10.00;99.90
18444;DHT22;9350;53.176;8.194;2023-03-20T02:17:57;9.90;99.90
18444;DHT22;9350;53.176;8.194;2023-03-20T02:20:35;10.00;99.90
18444;DHT22;9350;53.176;8.194;2023-03-20T02:26:38;9.90;99.90
18444;DHT22;9350;53.176;8.194;2023-03-20T02:29:49;9.90;99.90
18444;DHT22;9350;53.176;8.194;2023-03-20T02:36:01;9.90;99.90
18444;DHT22;9350;53.176;8.194;2023-03-20T02:39:02;9.90;99.90
18444;DHT22;9350;53.176;8.194;2023-03-20T02:41:36;9.90;99.90
18444;DHT22;9350;53.176;8.194;2023-03-20T02:44:07;10.00;99.90
18444;DHT22;9350;53.176;8.194;2023-03-20T02:46:46;10.00;99.90
18444;DHT22;9350;53.176;8.194;2023-03-20T02:49:28;10.00;99.90
18444;DHT22;9350;53.176;8.194;2023-03-20T02:51:59;10.00;99.90
18444;DHT22;9350;53.176;8.194;2023-03-20T02:54:36;9.90;99.90
18444;DHT22;9350;53.176;8.194;2023-03-20T02:57:06;9.90;99.90
18444;DHT22;9350;53.176;8.194;2023-03-20T02:59:39;9.90;99.90
18444;DHT22;9350;53.176;8.194;2023-03-20T03:02:10;9.90;99.90
18444;DHT22;9350;53.176;8.194;2023-03-20T03:04:42;10.00;99.90
18444;DHT22;9350;53.176;8.194;2023-03-20T03:07:13;9.90;99.90
18444;DHT22;9350;53.176;8.194;2023-03-20T03:09:47;9.90;99.90
18444;DHT22;9350;53.176;8.194;2023-03-20T03:12:16;9.90;99.90
18444;DHT22;9350;53.176;8.194;2023-03-20T03:14:46;9.90;99.90
18444;DHT22;9350;53.176;8.194;2023-03-20T03:17:15;9.80;99.90
18444;DHT22;9350;53.176;8.194;2023-03-20T03:19:46;9.80;99.90
18444;DHT22;9350;53.176;8.194;2023-03-20T03:22:15;9.90;99.90
18444;DHT22;9350;53.176;8.194;2023-03-20T03:24:46;9.90;99.90
18444;DHT22;9350;53.176;8.194;2023-03-20T03:27:18;9.90;99.90
18444;DHT22;9350;53.176;8.194;2023-03-20T03:29:49;9.90;99.90
18444;DHT22;9350;53.176;8.194;2023-03-20T03:32:27;9.90;99.90
18444;DHT22;9350;53.176;8.194;2023-03-20T03:34:55;9.90;99.90
18444;DHT22;9350;53.176;8.194;2023-03-20T03:37:32;9.90;99.90
18444;DHT22;9350;53.176;8.194;2023-03-20T03:40:14;9.90;99.90
18444;DHT22;9350;53.176;8.194;2023-03-20T03:42:49;9.90;99.90
18444;DHT22;9350;53.176;8.194;2023-03-20T03:45:23;9.90;99.90
18444;DHT22;9350;53.176;8.194;2023-03-20T03:47:54;9.80;99.90
18444;DHT22;9350;53.176;8.194;2023-03-20T03:50:27;9.90;99.90
18444;DHT22;9350;53.176;8.194;2023-03-20T03:52:56;9.90;99.90
18444;DHT22;9350;53.176;8.194;2023-03-20T03:55:28;9.90;99.90
18444;DHT22;9350;53.176;8.194;2023-03-20T03:57:57;9.90;99.90
18444;DHT22;9350;53.176;8.194;2023-03-20T04:00:26;9.90;99.90
18444;DHT22;9350;53.176;8.194;2023-03-20T04:02:56;9.80;99.90
18444;DHT22;9350;53.176;8.194;2023-03-20T04:05:25;9.90;99.90
18444;DHT22;9350;53.176;8.194;2023-03-20T04:07:57;9.90;99.90
18444;DHT22;9350;53.176;8.194;2023-03-20T04:10:26;9.80;99.90
18444;DHT22;9350;53.176;8.194;2023-03-20T04:12:53;9.80;99.90
18444;DHT22;9350;53.176;8.194;2023-03-20T04:15:20;9.80;99.90
18444;DHT22;9350;53.176;8.194;2023-03-20T04:17:47;9.80;99.90
18444;DHT22;9350;53.176;8.194;2023-03-20T04:20:14;9.80;99.90
18444;DHT22;9350;53.176;8.194;2023-03-20T04:22:41;9.80;99.90
18444;DHT22;9350;53.176;8.194;2023-03-20T04:25:14;9.80;99.90
18444;DHT22;9350;53.176;8.194;2023-03-20T04:27:43;9.80;99.90
18444;DHT22;9350;53.176;8.194;2023-03-20T04:30:11;9.70;99.90
18444;DHT22;9350;53.176;8.194;2023-03-20T04:32:38;9.70;99.90
18444;DHT22;9350;53.176;8.194;2023-03-20T04:35:05;9.80;99.90
18444;DHT22;9350;53.176;8.194;2023-03-20T04:37:32;9.80;99.90
18444;DHT22;9350;53.176;8.194;2023-03-20T04:39:59;9.70;99.90
18444;DHT22;9350;53.176;8.194;2023-03-20T04:42:26;9.70;99.90
18444;DHT22;9350;53.176;8.194;2023-03-20T04:44:54;9.70;99.90
18444;DHT22;9350;53.176;8.194;2023-03-20T04:47:20;9.70;99.90
18444;DHT22;9350;53.176;8.194;2023-03-20T04:49:47;9.70;99.90
18444;DHT22;9350;53.176;8.194;2023-03-20T04:52:14;9.70;99.90
18444;DHT22;9350;53.176;8.194;2023-03-20T04:54:41;9.70;99.90
18444;DHT22;9350;53.176;8.194;2023-03-20T04:57:07;9.60;99.90
18444;DHT22;9350;53.176;8.194;2023-03-20T04:59:34;9.70;99.90
18444;DHT22;9350;53.176;8.194;2023-03-20T05:02:02;9.70;99.90
18444;DHT22;9350;53.176;8.194;2023-03-20T05:04:29;9.60;99.90
18444;DHT22;9350;53.176;8.194;2023-03-20T05:06:55;9.70;99.90
18444;DHT22;9350;53.176;8.194;2023-03-20T05:09:22;9.70;99.90
18444;DHT22;9350;53.176;8.194;2023-03-20T05:11:49;9.60;99.90
18444;DHT22;9350;53.176;8.194;2023-03-20T05:14:16;9.80;99.90
18444;DHT22;9350;53.176;8.194;2023-03-20T05:16:42;9.70;99.90
18444;DHT22;9350;53.176;8.194;2023-03-20T05:19:10;9.70;99.90
18444;DHT22;9350;53.176;8.194;2023-03-20T05:21:37;9.70;99.90
18444;DHT22;9350;53.176;8.194;2023-03-20T05:24:05;9.70;99.90
18444;DHT22;9350;53.176;8.194;2023-03-20T05:26:31;9.70;99.90
18444;DHT22;9350;53.176;8.194;2023-03-20T05:28:58;9.60;99.90
18444;DHT22;9350;53.176;8.194;2023-03-20T05:31:25;9.70;99.90
18444;DHT22;9350;53.176;8.194;2023-03-20T05:33:52;9.80;99.90
18444;DHT22;9350;53.176;8.194;2023-03-20T05:36:20;9.60;99.90
18444;DHT22;9350;53.176;8.194;2023-03-20T05:38:47;9.70;99.90
18444;DHT22;9350;53.176;8.194;2023-03-20T05:41:13;9.70;99.90
18444;DHT22;9350;53.176;8.194;2023-03-20T05:43:40;9.60;99.90
18444;DHT22;9350;53.176;8.194;2023-03-20T05:46:07;9.60;99.90
18444;DHT22;9350;53.176;8.194;2023-03-20T05:48:34;9.60;99.90
18444;DHT22;9350;53.176;8.194;2023-03-20T05:51:01;9.70;99.90
18444;DHT22;9350;53.176;8.194;2023-03-20T05:53:29;9.70;99.90
18444;DHT22;9350;53.176;8.194;2023-03-20T05:55:56;9.60;99.90
18444;DHT22;9350;53.176;8.194;2023-03-20T05:58:22;9.60;99.90
18444;DHT22;9350;53.176;8.194;2023-03-20T06:00:49;9.70;99.90
18444;DHT22;9350;53.176;8.194;2023-03-20T06:03:16;9.60;99.90
18444;DHT22;9350;53.176;8.194;2023-03-20T06:05:43;9.60;99.90
18444;DHT22;9350;53.176;8.194;2023-03-20T06:08:10;9.50;99.90
18444;DHT22;9350;53.176;8.194;2023-03-20T06:10:38;9.70;99.90
18444;DHT22;9350;53.176;8.194;2023-03-20T06:13:05;9.60;99.90
18444;DHT22;9350;53.176;8.194;2023-03-20T06:15:32;9.60;99.90
18444;DHT22;9350;53.176;8.194;2023-03-20T06:17:59;9.70;99.90
18444;DHT22;9350;53.176;8.194;2023-03-20T06:20:26;9.70;99.90
18444;DHT22;9350;53.176;8.194;2023-03-20T06:22:53;9.80;99.90
18444;DHT22;9350;53.176;8.194;2023-03-20T06:25:20;9.80;99.90
18444;DHT22;9350;53.176;8.194;2023-03-20T06:27:48;9.70;99.90
18444;DHT22;9350;53.176;8.194;2023-03-20T06:30:15;9.70;99.90
18444;DHT22;9350;53.176;8.194;2023-03-20T06:32:42;9.70;99.90
18444;DHT22;9350;53.176;8.194;2023-03-20T06:35:10;9.70;99.90
18444;DHT22;9350;53.176;8.194;2023-03-20T06:37:38;9.80;99.90
18444;DHT22;9350;53.176;8.194;2023-03-20T06:40:06;9.70;99.90
18444;DHT22;9350;53.176;8.194;2023-03-20T06:42:33;9.70;99.90
18444;DHT22;9350;53.176;8.194;2023-03-20T06:45:01;9.70;99.90
18444;DHT22;9350;53.176;8.194;2023-03-20T06:47:28;9.70;99.90
18444;DHT22;9350;53.176;8.194;2023-03-20T06:49:55;9.70;99.90
18444;DHT22;9350;53.176;8.194;2023-03-20T06:52:21;9.70;99.90
18444;DHT22;9350;53.176;8.194;2023-03-20T06:54:49;9.70;99.90
18444;DHT22;9350;53.176;8.194;2023-03-20T06:57:16;9.70;99.90
18444;DHT22;9350;53.176;8.194;2023-03-20T06:59:43;9.70;99.90
18444;DHT22;9350;53.176;8.194;2023-03-20T07:02:11;9.70;99.90
18444;DHT22;9350;53.176;8.194;2023-03-20T07:04:39;9.80;99.90
18444;DHT22;9350;53.176;8.194;2023-03-20T07:07:06;9.80;99.90
18444;DHT22;9350;53.176;8.194;2023-03-20T07:09:33;9.80;99.90
18444;DHT22;9350;53.176;8.194;2023-03-20T07:12:00;9.80;99.90
18444;DHT22;9350;53.176;8.194;2023-03-20T07:14:27;9.80;99.90
18444;DHT22;9350;53.176;8.194;2023-03-20T07:16:53;9.80;99.90
18444;DHT22;9350;53.176;8.194;2023-03-20T07:19:22;9.80;99.90
18444;DHT22;9350;53.176;8.194;2023-03-20T07:21:51;9.80;99.90
18444;DHT22;9350;53.176;8.194;2023-03-20T07:24:20;9.90;99.90
18444;DHT22;9350;53.176;8.194;2023-03-20T07:26:47;9.80;99.90
18444;DHT22;9350;53.176;8.194;2023-03-20T07:29:14;9.90;99.90
18444;DHT22;9350;53.176;8.194;2023-03-20T07:31:41;9.80;99.90
18444;DHT22;9350;53.176;8.194;2023-03-20T07:34:07;9.80;99.90
18444;DHT22;9350;53.176;8.194;2023-03-20T07:36:35;9.90;99.90
18444;DHT22;9350;53.176;8.194;2023-03-20T07:39:02;9.90;99.90
18444;DHT22;9350;53.176;8.194;2023-03-20T07:41:29;9.90;99.90
18444;DHT22;9350;53.176;8.194;2023-03-20T07:43:56;9.90;99.90
18444;DHT22;9350;53.176;8.194;2023-03-20T07:46:23;9.90;99.90
18444;DHT22;9350;53.176;8.194;2023-03-20T07:48:50;9.90;99.90
18444;DHT22;9350;53.176;8.194;2023-03-20T07:51:17;10.00;99.90
18444;DHT22;9350;53.176;8.194;2023-03-20T07:53:45;10.00;99.90
18444;DHT22;9350;53.176;8.194;2023-03-20T07:56:12;9.90;99.90
18444;DHT22;9350;53.176;8.194;2023-03-20T07:58:38;9.90;99.90
18444;DHT22;9350;53.176;8.194;2023-03-20T08:01:05;9.90;99.90
18444;DHT22;9350;53.176;8.194;2023-03-20T08:03:32;9.90;99.90
18444;DHT22;9350;53.176;8.194;2023-03-20T08:05:59;10.00;99.90
18444;DHT22;9350;53.176;8.194;2023-03-20T08:08:26;10.00;99.90
18444;DHT22;9350;53.176;8.194;2023-03-20T08:10:54;10.00;99.90
18444;DHT22;9350;53.176;8.194;2023-03-20T08:13:21;10.00;99.90
18444;DHT22;9350;53.176;8.194;2023-03-20T08:15:48;9.90;99.90
18444;DHT22;9350;53.176;8.194;2023-03-20T08:18:16;10.00;99.90
18444;DHT22;9350;53.176;8.194;2023-03-20T08:20:44;10.00;99.90
18444;DHT22;9350;53.176;8.194;2023-03-20T08:23:11;10.00;99.90
18444;DHT22;9350;53.176;8.194;2023-03-20T08:25:38;10.00;99.90
18444;DHT22;9350;53.176;8.194;2023-03-20T08:28:06;10.10;99.90
18444;DHT22;9350;53.176;8.194;2023-03-20T08:30:33;10.20;99.90
18444;DHT22;9350;53.176;8.194;2023-03-20T08:33:00;10.10;99.90
18444;DHT22;9350;53.176;8.194;2023-03-20T08:35:27;10.20;99.90
18444;DHT22;9350;53.176;8.194;2023-03-20T08:37:53;10.20;99.90
18444;DHT22;9350;53.176;8.194;2023-03-20T08:40:20;10.20;99.90
18444;DHT22;9350;53.176;8.194;2023-03-20T08:42:47;10.30;99.90
18444;DHT22;9350;53.176;8.194;2023-03-20T08:45:15;10.20;99.90
18444;DHT22;9350;53.176;8.194;2023-03-20T08:47:42;10.20;99.90
18444;DHT22;9350;53.176;8.194;2023-03-20T08:50:10;10.40;99.90
18444;DHT22;9350;53.176;8.194;2023-03-20T08:52:37;10.40;99.90
18444;DHT22;9350;53.176;8.194;2023-03-20T08:55:08;10.40;99.90
18444;DHT22;9350;53.176;8.194;2023-03-20T08:57:35;10.40;99.90
18444;DHT22;9350;53.176;8.194;2023-03-20T09:00:03;10.40;99.90
18444;DHT22;9350;53.176;8.194;2023-03-20T09:02:32;10.50;99.90
18444;DHT22;9350;53.176;8.194;2023-03-20T09:04:59;10.40;99.90
18444;DHT22;9350;53.176;8.194;2023-03-20T09:07:25;10.40;99.90
18444;DHT22;9350;53.176;8.194;2023-03-20T09:09:52;10.30;99.90
18444;DHT22;9350;53.176;8.194;2023-03-20T09:12:19;10.30;99.90
18444;DHT22;9350;53.176;8.194;2023-03-20T09:14:46;10.30;99.90
18444;DHT22;9350;53.176;8.194;2023-03-20T09:17:12;10.40;99.90
18444;DHT22;9350;53.176;8.194;2023-03-20T09:19:41;10.40;99.90
18444;DHT22;9350;53.176;8.194;2023-03-20T09:22:10;10.40;99.90
18444;DHT22;9350;53.176;8.194;2023-03-20T09:24:38;10.40;99.90
18444;DHT22;9350;53.176;8.194;2023-03-20T09:27:05;10.40;99.90
18444;DHT22;9350;53.176;8.194;2023-03-20T09:29:32;10.50;99.90
18444;DHT22;9350;53.176;8.194;2023-03-20T09:31:58;10.50;99.90
18444;DHT22;9350;53.176;8.194;2023-03-20T09:34:25;10.50;99.90
18444;DHT22;9350;53.176;8.194;2023-03-20T09:36:53;10.50;99.90
18444;DHT22;9350;53.176;8.194;2023-03-20T09:39:20;10.60;99.90
18444;DHT22;9350;53.176;8.194;2023-03-20T09:41:48;10.50;99.90
18444;DHT22;9350;53.176;8.194;2023-03-20T09:44:21;10.60;99.90
18444;DHT22;9350;53.176;8.194;2023-03-20T09:47:09;10.60;99.90
18444;DHT22;9350;53.176;8.194;2023-03-20T09:49:43;10.60;99.90
18444;DHT22;9350;53.176;8.194;2023-03-20T09:52:20;10.60;99.90
18444;DHT22;9350;53.176;8.194;2023-03-20T09:54:50;10.80;99.90
18444;DHT22;9350;53.176;8.194;2023-03-20T09:57:21;10.80;99.90
18444;DHT22;9350;53.176;8.194;2023-03-20T09:59:54;10.90;99.90
18444;DHT22;9350;53.176;8.194;2023-03-20T10:02:28;10.90;99.90
18444;DHT22;9350;53.176;8.194;2023-03-20T10:04:58;11.00;99.90
18444;DHT22;9350;53.176;8.194;2023-03-20T10:07:26;11.00;99.90
18444;DHT22;9350;53.176;8.194;2023-03-20T10:09:53;11.10;99.90
18444;DHT22;9350;53.176;8.194;2023-03-20T10:12:41;11.10;99.90
18444;DHT22;9350;53.176;8.194;2023-03-20T10:15:17;11.20;99.90
18444;DHT22;9350;53.176;8.194;2023-03-20T10:17:53;11.20;99.90
18444;DHT22;9350;53.176;8.194;2023-03-20T10:20:28;11.10;99.90
18444;DHT22;9350;53.176;8.194;2023-03-20T10:22:58;11.20;99.90
18444;DHT22;9350;53.176;8.194;2023-03-20T10:25:32;11.20;99.90
18444;DHT22;9350;53.176;8.194;2023-03-20T10:28:05;11.10;99.90
18444;DHT22;9350;53.176;8.194;2023-03-20T10:30:48;11.10;99.90
18444;DHT22;9350;53.176;8.194;2023-03-20T10:33:24;11.20;99.90
18444;DHT22;9350;53.176;8.194;2023-03-20T10:38:51;11.20;99.90
18444;DHT22;9350;53.176;8.194;2023-03-20T10:41:25;11.30;99.90
18444;DHT22;9350;53.176;8.194;2023-03-20T10:43:55;11.40;99.90
18444;DHT22;9350;53.176;8.194;2023-03-20T10:46:26;11.50;99.90
18444;DHT22;9350;53.176;8.194;2023-03-20T10:48:58;11.50;99.90
18444;DHT22;9350;53.176;8.194;2023-03-20T10:51:35;11.50;99.90
18444;DHT22;9350;53.176;8.194;2023-03-20T10:54:09;11.60;99.90
18444;DHT22;9350;53.176;8.194;2023-03-20T10:56:43;11.60;99.90
18444;DHT22;9350;53.176;8.194;2023-03-20T10:59:19;11.70;99.90
18444;DHT22;9350;53.176;8.194;2023-03-20T11:01:47;11.70;99.90
18444;DHT22;9350;53.176;8.194;2023-03-20T11:04:14;11.80;99.90
18444;DHT22;9350;53.176;8.194;2023-03-20T11:06:44;11.70;99.90
18444;DHT22;9350;53.176;8.194;2023-03-20T11:09:17;11.80;99.90
18444;DHT22;9350;53.176;8.194;2023-03-20T11:11:45;11.80;99.90
18444;DHT22;9350;53.176;8.194;2023-03-20T11:14:16;11.80;99.90
18444;DHT22;9350;53.176;8.194;2023-03-20T11:16:47;11.80;99.90
18444;DHT22;9350;53.176;8.194;2023-03-20T11:19:14;11.80;99.90
18444;DHT22;9350;53.176;8.194;2023-03-20T11:21:47;11.80;99.90
18444;DHT22;9350;53.176;8.194;2023-03-20T11:24:25;11.80;99.90
18444;DHT22;9350;53.176;8.194;2023-03-20T11:26:53;11.90;99.90
18444;DHT22;9350;53.176;8.194;2023-03-20T11:29:25;11.90;99.90
18444;DHT22;9350;53.176;8.194;2023-03-20T11:32:03;11.90;99.90
18444;DHT22;9350;53.176;8.194;2023-03-20T11:34:32;11.80;99.90
18444;DHT22;9350;53.176;8.194;2023-03-20T11:37:21;11.90;99.90
18444;DHT22;9350;53.176;8.194;2023-03-20T11:39:56;11.90;99.90
18444;DHT22;9350;53.176;8.194;2023-03-20T11:42:25;11.90;99.90
18444;DHT22;9350;53.176;8.194;2023-03-20T11:45:00;11.90;99.90
18444;DHT22;9350;53.176;8.194;2023-03-20T11:47:30;11.90;99.90
18444;DHT22;9350;53.176;8.194;2023-03-20T11:49:59;11.90;99.90
18444;DHT22;9350;53.176;8.194;2023-03-20T11:52:29;11.90;99.90
18444;DHT22;9350;53.176;8.194;2023-03-20T11:55:00;11.90;99.90
18444;DHT22;9350;53.176;8.194;2023-03-20T11:57:31;11.90;99.90
18444;DHT22;9350;53.176;8.194;2023-03-20T12:00:04;11.90;99.90
18444;DHT22;9350;53.176;8.194;2023-03-20T12:02:33;11.80;99.90
18444;DHT22;9350;53.176;8.194;2023-03-20T12:05:18;11.80;99.90
18444;DHT22;9350;53.176;8.194;2023-03-20T12:07:45;11.80;99.90
18444;DHT22;9350;53.176;8.194;2023-03-20T12:10:16;11.70;99.90
18444;DHT22;9350;53.176;8.194;2023-03-20T12:12:47;11.70;99.90
18444;DHT22;9350;53.176;8.194;2023-03-20T12:15:20;11.80;99.90
18444;DHT22;9350;53.176;8.194;2023-03-20T12:17:52;11.60;99.90
18444;DHT22;9350;53.176;8.194;2023-03-20T12:20:27;11.60;99.90
18444;DHT22;9350;53.176;8.194;2023-03-20T12:23:11;11.70;99.90
18444;DHT22;9350;53.176;8.194;2023-03-20T12:25:46;11.60;99.90
18444;DHT22;9350;53.176;8.194;2023-03-20T12:28:19;11.60;99.90
18444;DHT22;9350;53.176;8.194;2023-03-20T12:30:56;11.60;99.90
18444;DHT22;9350;53.176;8.194;2023-03-20T12:33:36;11.70;99.90
18444;DHT22;9350;53.176;8.194;2023-03-20T12:36:12;11.70;99.90
18444;DHT22;9350;53.176;8.194;2023-03-20T12:38:40;11.70;99.90
18444;DHT22;9350;53.176;8.194;2023-03-20T12:41:11;11.80;99.90
18444;DHT22;9350;53.176;8.194;2023-03-20T12:43:49;11.80;99.90
18444;DHT22;9350;53.176;8.194;2023-03-20T12:46:25;11.70;99.90
18444;DHT22;9350;53.176;8.194;2023-03-20T12:49:03;11.80;99.90
18444;DHT22;9350;53.176;8.194;2023-03-20T12:51:40;11.70;99.90
18444;DHT22;9350;53.176;8.194;2023-03-20T12:54:19;11.60;99.90
18444;DHT22;9350;53.176;8.194;2023-03-20T12:57:01;11.60;99.90
18444;DHT22;9350;53.176;8.194;2023-03-20T12:59:38;11.70;99.90
18444;DHT22;9350;53.176;8.194;2023-03-20T13:02:17;11.60;99.90
18444;DHT22;9350;53.176;8.194;2023-03-20T13:04:57;11.70;99.90
18444;DHT22;9350;53.176;8.194;2023-03-20T13:07:41;11.70;99.90
18444;DHT22;9350;53.176;8.194;2023-03-20T13:10:17;11.70;99.90
18444;DHT22;9350;53.176;8.194;2023-03-20T13:12:53;11.60;99.90
18444;DHT22;9350;53.176;8.194;2023-03-20T13:15:33;11.70;99.90
18444;DHT22;9350;53.176;8.194;2023-03-20T13:18:05;11.70;99.90
18444;DHT22;9350;53.176;8.194;2023-03-20T13:20:35;11.70;99.90
18444;DHT22;9350;53.176;8.194;2023-03-20T13:23:11;11.70;99.90
18444;DHT22;9350;53.176;8.194;2023-03-20T13:28:48;11.70;99.90
18444;DHT22;9350;53.176;8.194;2023-03-20T13:31:29;11.60;99.90
18444;DHT22;9350;53.176;8.194;2023-03-20T13:34:03;11.60;99.90
18444;DHT22;9350;53.176;8.194;2023-03-20T13:36:48;11.60;99.90
18444;DHT22;9350;53.176;8.194;2023-03-20T13:39:20;11.60;99.90
18444;DHT22;9350;53.176;8.194;2023-03-20T13:41:49;11.60;99.90
18444;DHT22;9350;53.176;8.194;2023-03-20T13:44:22;11.60;99.90
18444;DHT22;9350;53.176;8.194;2023-03-20T13:46:55;11.50;99.90
18444;DHT22;9350;53.176;8.194;2023-03-20T13:49:26;11.50;99.90
18444;DHT22;9350;53.176;8.194;2023-03-20T13:52:02;11.50;99.90
18444;DHT22;9350;53.176;8.194;2023-03-20T13:54:41;11.50;99.90
18444;DHT22;9350;53.176;8.194;2023-03-20T13:57:18;11.40;99.90
18444;DHT22;9350;53.176;8.194;2023-03-20T13:59:55;11.40;99.90
18444;DHT22;9350;53.176;8.194;2023-03-20T14:02:36;11.30;99.90
18444;DHT22;9350;53.176;8.194;2023-03-20T14:05:10;11.30;99.90
18444;DHT22;9350;53.176;8.194;2023-03-20T14:07:41;11.30;99.90
18444;DHT22;9350;53.176;8.194;2023-03-20T14:10:36;11.10;99.90
18444;DHT22;9350;53.176;8.194;2023-03-20T14:13:08;11.00;99.90
18444;DHT22;9350;53.176;8.194;2023-03-20T14:15:43;10.90;99.90
18444;DHT22;9350;53.176;8.194;2023-03-20T14:18:14;10.90;99.90
18444;DHT22;9350;53.176;8.194;2023-03-20T14:20:42;11.00;99.90
18444;DHT22;9350;53.176;8.194;2023-03-20T14:23:16;11.00;99.90
18444;DHT22;9350;53.176;8.194;2023-03-20T14:25:46;11.00;99.90
18444;DHT22;9350;53.176;8.194;2023-03-20T14:28:24;11.00;99.90
18444;DHT22;9350;53.176;8.194;2023-03-20T14:31:11;11.00;99.90
18444;DHT22;9350;53.176;8.194;2023-03-20T14:33:41;10.90;99.90
18444;DHT22;9350;53.176;8.194;2023-03-20T14:36:19;10.90;99.90
18444;DHT22;9350;53.176;8.194;2023-03-20T14:38:58;10.80;99.90
18444;DHT22;9350;53.176;8.194;2023-03-20T14:41:32;10.80;99.90
18444;DHT22;9350;53.176;8.194;2023-03-20T14:44:14;10.70;99.90
18444;DHT22;9350;53.176;8.194;2023-03-20T14:46:50;10.80;99.90
18444;DHT22;9350;53.176;8.194;2023-03-20T14:49:35;10.80;99.90
18444;DHT22;9350;53.176;8.194;2023-03-20T14:52:36;10.80;99.90
18444;DHT22;9350;53.176;8.194;2023-03-20T14:55:28;10.80;99.90
18444;DHT22;9350;53.176;8.194;2023-03-20T14:57:56;10.90;99.90
18444;DHT22;9350;53.176;8.194;2023-03-20T15:00:25;10.90;99.90
18444;DHT22;9350;53.176;8.194;2023-03-20T15:03:04;10.90;99.90
18444;DHT22;9350;53.176;8.194;2023-03-20T15:05:33;10.90;99.90
18444;DHT22;9350;53.176;8.194;2023-03-20T15:08:05;10.90;99.90
18444;DHT22;9350;53.176;8.194;2023-03-20T15:10:34;10.70;99.90
18444;DHT22;9350;53.176;8.194;2023-03-20T15:13:04;10.80;99.90
18444;DHT22;9350;53.176;8.194;2023-03-20T15:15:31;10.80;99.90
18444;DHT22;9350;53.176;8.194;2023-03-20T15:18:05;10.70;99.90
18444;DHT22;9350;53.176;8.194;2023-03-20T15:20:34;10.80;99.90
18444;DHT22;9350;53.176;8.194;2023-03-20T15:23:02;10.80;99.90
18444;DHT22;9350;53.176;8.194;2023-03-20T15:25:32;10.80;99.90
18444;DHT22;9350;53.176;8.194;2023-03-20T15:27:59;10.80;99.90
18444;DHT22;9350;53.176;8.194;2023-03-20T15:30:36;10.80;99.90
18444;DHT22;9350;53.176;8.194;2023-03-20T15:33:05;10.80;99.90
18444;DHT22;9350;53.176;8.194;2023-03-20T15:35:32;10.80;99.90
18444;DHT22;9350;53.176;8.194;2023-03-20T15:38:04;10.80;99.90
18444;DHT22;9350;53.176;8.194;2023-03-20T15:40:33;10.80;99.90
18444;DHT22;9350;53.176;8.194;2023-03-20T15:43:10;10.90;99.90
18444;DHT22;9350;53.176;8.194;2023-03-20T15:45:40;10.90;99.90
18444;DHT22;9350;53.176;8.194;2023-03-20T15:48:13;10.90;99.90
18444;DHT22;9350;53.176;8.194;2023-03-20T15:50:42;10.80;99.90
18444;DHT22;9350;53.176;8.194;2023-03-20T15:53:15;10.80;99.90
18444;DHT22;9350;53.176;8.194;2023-03-20T15:55:46;10.80;99.90
18444;DHT22;9350;53.176;8.194;2023-03-20T15:58:14;10.80;99.90
18444;DHT22;9350;53.176;8.194;2023-03-20T16:00:45;10.80;99.90
18444;DHT22;9350;53.176;8.194;2023-03-20T16:03:16;10.70;99.90
18444;DHT22;9350;53.176;8.194;2023-03-20T16:05:45;10.70;99.90
18444;DHT22;9350;53.176;8.194;2023-03-20T16:08:14;10.70;99.90
18444;DHT22;9350;53.176;8.194;2023-03-20T16:10:44;10.70;99.90
18444;DHT22;9350;53.176;8.194;2023-03-20T16:13:12;10.80;99.90
18444;DHT22;9350;53.176;8.194;2023-03-20T16:15:41;10.80;99.90
18444;DHT22;9350;53.176;8.194;2023-03-20T16:18:12;10.70;99.90
18444;DHT22;9350;53.176;8.194;2023-03-20T16:20:46;10.80;99.90
18444;DHT22;9350;53.176;8.194;2023-03-20T16:23:22;10.80;99.90
18444;DHT22;9350;53.176;8.194;2023-03-20T16:25:56;10.80;99.90
18444;DHT22;9350;53.176;8.194;2023-03-20T16:28:24;10.80;99.90
18444;DHT22;9350;53.176;8.194;2023-03-20T16:30:51;10.60;99.90